sensor_id;sensor_type;location;lat;lon;timestamp;P1;durP1;ratioP1;P2;durP2;ratioP2
19507;SDS011;40157;42.566;27.526;2023-01-31T00:01:27;36.87;;;13.47;;
19507;SDS011;40157;42.566;27.526;2023-01-31T00:03:29;35.63;;;15.00;;
19507;SDS011;40157;42.566;27.526;2023-01-31T00:05:30;36.07;;;14.20;;
19507;SDS011;40157;42.566;27.526;2023-01-31T00:07:30;32.63;;;13.33;;
19507;SDS011;40157;42.566;27.526;2023-01-31T00:09:30;32.73;;;13.87;;
19507;SDS011;40157;42.566;27.526;2023-01-31T00:11:31;29.87;;;13.93;;
19507;SDS011;40157;42.566;27.526;2023-01-31T00:13:32;36.53;;;13.17;;
19507;SDS011;40157;42.566;27.526;2023-01-31T00:15:33;34.03;;;13.77;;
19507;SDS011;40157;42.566;27.526;2023-01-31T00:17:33;30.30;;;13.27;;
19507;SDS011;40157;42.566;27.526;2023-01-31T00:19:34;30.07;;;13.43;;
19507;SDS011;40157;42.566;27.526;2023-01-31T00:21:34;36.00;;;14.77;;
19507;SDS011;40157;42.566;27.526;2023-01-31T00:23:35;38.00;;;13.37;;
19507;SDS011;40157;42.566;27.526;2023-01-31T00:25:36;25.97;;;12.37;;
19507;SDS011;40157;42.566;27.526;2023-01-31T00:27:36;32.33;;;12.90;;
19507;SDS011;40157;42.566;27.526;2023-01-31T00:29:37;31.37;;;14.23;;
19507;SDS011;40157;42.566;27.526;2023-01-31T00:31:37;35.80;;;14.30;;
19507;SDS011;40157;42.566;27.526;2023-01-31T00:33:38;27.03;;;12.73;;
19507;SDS011;40157;42.566;27.526;2023-01-31T00:35:40;30.53;;;13.23;;
19507;SDS011;40157;42.566;27.526;2023-01-31T00:37:40;29.37;;;12.47;;
19507;SDS011;40157;42.566;27.526;2023-01-31T00:39:41;26.93;;;11.07;;
19507;SDS011;40157;42.566;27.526;2023-01-31T00:41:41;30.83;;;11.47;;
19507;SDS011;40157;42.566;27.526;2023-01-31T00:43:42;34.23;;;12.97;;
19507;SDS011;40157;42.566;27.526;2023-01-31T00:45:42;41.20;;;17.60;;
19507;SDS011;40157;42.566;27.526;2023-01-31T00:47:43;42.83;;;18.10;;
19507;SDS011;40157;42.566;27.526;2023-01-31T00:49:43;40.03;;;15.50;;
19507;SDS011;40157;42.566;27.526;2023-01-31T00:51:43;39.73;;;17.37;;
19507;SDS011;40157;42.566;27.526;2023-01-31T00:53:44;46.60;;;19.07;;
19507;SDS011;40157;42.566;27.526;2023-01-31T00:55:45;35.47;;;16.70;;
19507;SDS011;40157;42.566;27.526;2023-01-31T00:57:45;48.63;;;20.20;;
19507;SDS011;40157;42.566;27.526;2023-01-31T00:59:45;56.10;;;22.43;;
19507;SDS011;40157;42.566;27.526;2023-01-31T01:01:46;58.83;;;24.53;;
19507;SDS011;40157;42.566;27.526;2023-01-31T01:03:46;64.17;;;24.43;;
19507;SDS011;40157;42.566;27.526;2023-01-31T01:05:47;58.03;;;23.37;;
19507;SDS011;40157;42.566;27.526;2023-01-31T01:07:48;49.17;;;20.40;;
19507;SDS011;40157;42.566;27.526;2023-01-31T01:09:48;44.27;;;19.43;;
19507;SDS011;40157;42.566;27.526;2023-01-31T01:11:48;48.77;;;19.87;;
19507;SDS011;40157;42.566;27.526;2023-01-31T01:13:49;47.23;;;19.17;;
19507;SDS011;40157;42.566;27.526;2023-01-31T01:15:50;44.83;;;18.43;;
19507;SDS011;40157;42.566;27.526;2023-01-31T01:17:50;49.70;;;18.33;;
19507;SDS011;40157;42.566;27.526;2023-01-31T01:19:51;55.10;;;22.03;;
19507;SDS011;40157;42.566;27.526;2023-01-31T01:21:53;47.17;;;20.07;;
19507;SDS011;40157;42.566;27.526;2023-01-31T01:23:57;42.53;;;17.37;;
19507;SDS011;40157;42.566;27.526;2023-01-31T01:25:59;46.27;;;19.07;;
19507;SDS011;40157;42.566;27.526;2023-01-31T01:27:59;42.13;;;17.63;;
19507;SDS011;40157;42.566;27.526;2023-01-31T01:30:00;38.77;;;16.50;;
19507;SDS011;40157;42.566;27.526;2023-01-31T01:32:01;43.23;;;15.80;;
19507;SDS011;40157;42.566;27.526;2023-01-31T01:34:10;35.73;;;14.73;;
19507;SDS011;40157;42.566;27.526;2023-01-31T01:36:14;35.50;;;13.30;;
19507;SDS011;40157;42.566;27.526;2023-01-31T01:38:16;34.00;;;13.13;;
19507;SDS011;40157;42.566;27.526;2023-01-31T01:40:17;28.67;;;12.57;;
19507;SDS011;40157;42.566;27.526;2023-01-31T01:42:19;33.57;;;12.57;;
19507;SDS011;40157;42.566;27.526;2023-01-31T01:46:41;28.07;;;11.60;;
19507;SDS011;40157;42.566;27.526;2023-01-31T01:48:44;26.33;;;11.40;;
19507;SDS011;40157;42.566;27.526;2023-01-31T01:50:47;25.93;;;10.87;;
19507;SDS011;40157;42.566;27.526;2023-01-31T01:55:20;21.53;;;10.33;;
19507;SDS011;40157;42.566;27.526;2023-01-31T01:57:25;25.87;;;10.60;;
19507;SDS011;40157;42.566;27.526;2023-01-31T01:59:31;25.13;;;10.23;;
19507;SDS011;40157;42.566;27.526;2023-01-31T02:01:39;21.53;;;9.60;;
19507;SDS011;40157;42.566;27.526;2023-01-31T02:03:40;26.23;;;9.90;;
19507;SDS011;40157;42.566;27.526;2023-01-31T02:07:43;30.63;;;13.03;;
19507;SDS011;40157;42.566;27.526;2023-01-31T02:10:04;32.53;;;14.20;;
19507;SDS011;40157;42.566;27.526;2023-01-31T02:12:11;39.27;;;14.90;;
19507;SDS011;40157;42.566;27.526;2023-01-31T02:14:12;41.97;;;17.43;;
19507;SDS011;40157;42.566;27.526;2023-01-31T02:16:13;53.67;;;19.90;;
19507;SDS011;40157;42.566;27.526;2023-01-31T02:18:14;43.73;;;19.63;;
19507;SDS011;40157;42.566;27.526;2023-01-31T02:23:31;31.83;;;13.13;;
19507;SDS011;40157;42.566;27.526;2023-01-31T02:27:37;30.43;;;12.20;;
19507;SDS011;40157;42.566;27.526;2023-01-31T02:30:06;25.67;;;11.87;;
19507;SDS011;40157;42.566;27.526;2023-01-31T02:39:16;29.17;;;10.70;;
19507;SDS011;40157;42.566;27.526;2023-01-31T02:46:36;22.63;;;9.37;;
19507;SDS011;40157;42.566;27.526;2023-01-31T02:51:44;22.33;;;7.77;;
19507;SDS011;40157;42.566;27.526;2023-01-31T02:54:08;22.80;;;8.23;;
19507;SDS011;40157;42.566;27.526;2023-01-31T02:56:18;22.73;;;9.50;;
19507;SDS011;40157;42.566;27.526;2023-01-31T02:58:24;24.37;;;8.90;;
19507;SDS011;40157;42.566;27.526;2023-01-31T03:00:28;35.60;;;11.47;;
19507;SDS011;40157;42.566;27.526;2023-01-31T03:02:35;23.50;;;9.97;;
19507;SDS011;40157;42.566;27.526;2023-01-31T03:04:35;21.30;;;9.27;;
19507;SDS011;40157;42.566;27.526;2023-01-31T03:09:17;25.60;;;9.30;;
19507;SDS011;40157;42.566;27.526;2023-01-31T03:11:41;26.23;;;9.40;;
19507;SDS011;40157;42.566;27.526;2023-01-31T03:13:46;25.80;;;10.23;;
19507;SDS011;40157;42.566;27.526;2023-01-31T03:15:54;27.57;;;10.83;;
19507;SDS011;40157;42.566;27.526;2023-01-31T03:19:13;25.33;;;9.50;;
19507;SDS011;40157;42.566;27.526;2023-01-31T03:20:56;21.97;;;9.67;;
19507;SDS011;40157;42.566;27.526;2023-01-31T03:23:08;29.90;;;10.77;;
19507;SDS011;40157;42.566;27.526;2023-01-31T03:25:15;27.03;;;11.57;;
19507;SDS011;40157;42.566;27.526;2023-01-31T03:27:18;26.80;;;9.83;;
19507;SDS011;40157;42.566;27.526;2023-01-31T03:29:20;27.93;;;10.53;;
19507;SDS011;40157;42.566;27.526;2023-01-31T03:31:27;27.87;;;9.97;;
19507;SDS011;40157;42.566;27.526;2023-01-31T03:33:36;25.50;;;10.37;;
19507;SDS011;40157;42.566;27.526;2023-01-31T03:35:39;24.90;;;9.93;;
19507;SDS011;40157;42.566;27.526;2023-01-31T03:39:59;25.33;;;10.33;;
19507;SDS011;40157;42.566;27.526;2023-01-31T03:46:18;27.57;;;10.43;;
19507;SDS011;40157;42.566;27.526;2023-01-31T03:48:25;24.40;;;10.20;;
19507;SDS011;40157;42.566;27.526;2023-01-31T03:50:37;22.93;;;8.90;;
19507;SDS011;40157;42.566;27.526;2023-01-31T03:52:48;26.40;;;10.10;;
19507;SDS011;40157;42.566;27.526;2023-01-31T03:55:02;22.47;;;9.70;;
19507;SDS011;40157;42.566;27.526;2023-01-31T03:57:11;19.20;;;8.87;;
19507;SDS011;40157;42.566;27.526;2023-01-31T03:59:24;29.57;;;8.83;;
19507;SDS011;40157;42.566;27.526;2023-01-31T04:01:27;24.90;;;8.97;;
19507;SDS011;40157;42.566;27.526;2023-01-31T04:05:39;27.50;;;9.67;;
19507;SDS011;40157;42.566;27.526;2023-01-31T04:07:40;24.17;;;9.87;;
19507;SDS011;40157;42.566;27.526;2023-01-31T04:09:41;29.07;;;10.37;;
19507;SDS011;40157;42.566;27.526;2023-01-31T04:11:46;24.97;;;9.97;;
19507;SDS011;40157;42.566;27.526;2023-01-31T04:13:47;23.87;;;9.40;;
19507;SDS011;40157;42.566;27.526;2023-01-31T04:15:48;29.20;;;10.67;;
19507;SDS011;40157;42.566;27.526;2023-01-31T04:17:48;27.90;;;10.33;;
19507;SDS011;40157;42.566;27.526;2023-01-31T04:19:49;25.60;;;9.17;;
19507;SDS011;40157;42.566;27.526;2023-01-31T04:21:49;30.17;;;11.73;;
19507;SDS011;40157;42.566;27.526;2023-01-31T04:23:50;25.73;;;9.90;;
19507;SDS011;40157;42.566;27.526;2023-01-31T04:25:51;24.80;;;9.30;;
19507;SDS011;40157;42.566;27.526;2023-01-31T04:27:53;26.40;;;9.53;;
19507;SDS011;40157;42.566;27.526;2023-01-31T04:29:53;24.77;;;8.67;;
19507;SDS011;40157;42.566;27.526;2023-01-31T04:31:53;26.60;;;10.17;;
19507;SDS011;40157;42.566;27.526;2023-01-31T04:33:54;23.20;;;10.30;;
19507;SDS011;40157;42.566;27.526;2023-01-31T04:35:57;25.77;;;10.70;;
19507;SDS011;40157;42.566;27.526;2023-01-31T04:37:57;30.03;;;10.93;;
19507;SDS011;40157;42.566;27.526;2023-01-31T04:39:58;31.90;;;11.70;;
19507;SDS011;40157;42.566;27.526;2023-01-31T04:41:58;30.40;;;11.10;;
19507;SDS011;40157;42.566;27.526;2023-01-31T04:43:59;34.00;;;11.27;;
19507;SDS011;40157;42.566;27.526;2023-01-31T04:45:59;39.40;;;15.70;;
19507;SDS011;40157;42.566;27.526;2023-01-31T04:47:59;36.97;;;14.50;;
19507;SDS011;40157;42.566;27.526;2023-01-31T04:50:00;30.83;;;12.00;;
19507;SDS011;40157;42.566;27.526;2023-01-31T04:52:00;30.60;;;11.10;;
19507;SDS011;40157;42.566;27.526;2023-01-31T04:54:01;27.80;;;11.33;;
19507;SDS011;40157;42.566;27.526;2023-01-31T04:56:02;33.43;;;11.53;;
19507;SDS011;40157;42.566;27.526;2023-01-31T04:58:03;28.80;;;11.73;;
19507;SDS011;40157;42.566;27.526;2023-01-31T05:00:03;31.83;;;11.20;;
19507;SDS011;40157;42.566;27.526;2023-01-31T05:02:04;35.77;;;13.70;;
19507;SDS011;40157;42.566;27.526;2023-01-31T05:04:05;34.97;;;12.83;;
19507;SDS011;40157;42.566;27.526;2023-01-31T05:06:05;28.77;;;12.17;;
19507;SDS011;40157;42.566;27.526;2023-01-31T05:08:06;30.40;;;12.97;;
19507;SDS011;40157;42.566;27.526;2023-01-31T05:10:07;39.87;;;15.13;;
19507;SDS011;40157;42.566;27.526;2023-01-31T05:12:08;46.00;;;15.27;;
19507;SDS011;40157;42.566;27.526;2023-01-31T05:14:09;27.97;;;13.10;;
19507;SDS011;40157;42.566;27.526;2023-01-31T05:16:10;38.27;;;12.87;;
19507;SDS011;40157;42.566;27.526;2023-01-31T05:18:11;28.73;;;11.90;;
19507;SDS011;40157;42.566;27.526;2023-01-31T05:20:11;31.50;;;12.27;;
19507;SDS011;40157;42.566;27.526;2023-01-31T05:22:12;33.43;;;13.23;;
19507;SDS011;40157;42.566;27.526;2023-01-31T05:24:12;33.10;;;13.00;;
19507;SDS011;40157;42.566;27.526;2023-01-31T05:26:13;39.63;;;15.90;;
19507;SDS011;40157;42.566;27.526;2023-01-31T05:28:13;69.83;;;23.57;;
19507;SDS011;40157;42.566;27.526;2023-01-31T05:30:14;59.73;;;22.03;;
19507;SDS011;40157;42.566;27.526;2023-01-31T05:32:14;109.40;;;38.77;;
19507;SDS011;40157;42.566;27.526;2023-01-31T05:34:16;90.70;;;33.93;;
19507;SDS011;40157;42.566;27.526;2023-01-31T05:36:17;61.70;;;26.70;;
19507;SDS011;40157;42.566;27.526;2023-01-31T05:38:17;56.43;;;25.13;;
19507;SDS011;40157;42.566;27.526;2023-01-31T05:40:18;72.03;;;28.93;;
19507;SDS011;40157;42.566;27.526;2023-01-31T05:42:18;41.37;;;19.43;;
19507;SDS011;40157;42.566;27.526;2023-01-31T05:44:19;42.23;;;17.80;;
19507;SDS011;40157;42.566;27.526;2023-01-31T05:46:20;43.73;;;18.00;;
19507;SDS011;40157;42.566;27.526;2023-01-31T05:48:21;38.13;;;14.93;;
19507;SDS011;40157;42.566;27.526;2023-01-31T05:50:21;45.93;;;16.93;;
19507;SDS011;40157;42.566;27.526;2023-01-31T05:52:22;61.80;;;24.73;;
19507;SDS011;40157;42.566;27.526;2023-01-31T05:54:23;61.87;;;21.83;;
19507;SDS011;40157;42.566;27.526;2023-01-31T05:56:23;52.77;;;20.37;;
19507;SDS011;40157;42.566;27.526;2023-01-31T05:58:24;51.47;;;22.47;;
19507;SDS011;40157;42.566;27.526;2023-01-31T06:00:24;56.70;;;25.20;;
19507;SDS011;40157;42.566;27.526;2023-01-31T06:02:25;60.30;;;23.63;;
19507;SDS011;40157;42.566;27.526;2023-01-31T06:04:25;55.47;;;21.70;;
19507;SDS011;40157;42.566;27.526;2023-01-31T06:06:25;57.40;;;25.73;;
19507;SDS011;40157;42.566;27.526;2023-01-31T06:08:26;75.90;;;30.10;;
19507;SDS011;40157;42.566;27.526;2023-01-31T06:10:26;75.90;;;29.17;;
19507;SDS011;40157;42.566;27.526;2023-01-31T06:12:27;78.47;;;26.83;;
19507;SDS011;40157;42.566;27.526;2023-01-31T06:14:27;60.33;;;21.77;;
19507;SDS011;40157;42.566;27.526;2023-01-31T06:16:28;49.10;;;20.27;;
19507;SDS011;40157;42.566;27.526;2023-01-31T06:18:28;42.70;;;17.37;;
19507;SDS011;40157;42.566;27.526;2023-01-31T06:20:29;54.83;;;20.57;;
19507;SDS011;40157;42.566;27.526;2023-01-31T06:22:29;55.90;;;21.37;;
19507;SDS011;40157;42.566;27.526;2023-01-31T06:24:30;51.93;;;18.50;;
19507;SDS011;40157;42.566;27.526;2023-01-31T06:26:30;60.87;;;22.00;;
19507;SDS011;40157;42.566;27.526;2023-01-31T06:28:31;55.40;;;20.87;;
19507;SDS011;40157;42.566;27.526;2023-01-31T06:30:32;42.50;;;17.57;;
19507;SDS011;40157;42.566;27.526;2023-01-31T06:32:32;53.67;;;18.23;;
19507;SDS011;40157;42.566;27.526;2023-01-31T06:34:32;53.20;;;22.33;;
19507;SDS011;40157;42.566;27.526;2023-01-31T06:36:33;53.87;;;23.53;;
19507;SDS011;40157;42.566;27.526;2023-01-31T06:38:33;45.70;;;18.80;;
19507;SDS011;40157;42.566;27.526;2023-01-31T06:40:34;46.50;;;17.13;;
19507;SDS011;40157;42.566;27.526;2023-01-31T06:42:37;44.67;;;17.27;;
19507;SDS011;40157;42.566;27.526;2023-01-31T06:44:38;41.13;;;16.03;;
19507;SDS011;40157;42.566;27.526;2023-01-31T06:46:38;48.47;;;18.30;;
19507;SDS011;40157;42.566;27.526;2023-01-31T06:48:39;47.33;;;17.93;;
19507;SDS011;40157;42.566;27.526;2023-01-31T06:50:39;48.03;;;18.60;;
19507;SDS011;40157;42.566;27.526;2023-01-31T06:52:40;57.43;;;21.60;;
19507;SDS011;40157;42.566;27.526;2023-01-31T06:54:41;48.37;;;21.20;;
19507;SDS011;40157;42.566;27.526;2023-01-31T06:56:41;71.23;;;27.33;;
19507;SDS011;40157;42.566;27.526;2023-01-31T06:58:42;70.70;;;25.50;;
19507;SDS011;40157;42.566;27.526;2023-01-31T07:00:42;67.03;;;27.50;;
19507;SDS011;40157;42.566;27.526;2023-01-31T07:02:43;62.77;;;25.37;;
19507;SDS011;40157;42.566;27.526;2023-01-31T07:04:44;73.03;;;28.03;;
19507;SDS011;40157;42.566;27.526;2023-01-31T07:06:45;60.90;;;24.47;;
19507;SDS011;40157;42.566;27.526;2023-01-31T07:08:45;65.17;;;22.57;;
19507;SDS011;40157;42.566;27.526;2023-01-31T07:10:46;79.37;;;30.17;;
19507;SDS011;40157;42.566;27.526;2023-01-31T07:12:47;79.87;;;29.90;;
19507;SDS011;40157;42.566;27.526;2023-01-31T07:14:48;90.10;;;33.50;;
19507;SDS011;40157;42.566;27.526;2023-01-31T07:16:48;73.47;;;31.23;;
19507;SDS011;40157;42.566;27.526;2023-01-31T07:18:50;66.13;;;23.60;;
19507;SDS011;40157;42.566;27.526;2023-01-31T07:20:52;68.10;;;24.63;;
19507;SDS011;40157;42.566;27.526;2023-01-31T07:22:55;64.43;;;25.00;;
19507;SDS011;40157;42.566;27.526;2023-01-31T07:24:56;59.03;;;20.47;;
19507;SDS011;40157;42.566;27.526;2023-01-31T07:26:57;54.60;;;21.50;;
19507;SDS011;40157;42.566;27.526;2023-01-31T07:28:57;50.77;;;19.43;;
19507;SDS011;40157;42.566;27.526;2023-01-31T07:31:04;55.17;;;19.13;;
19507;SDS011;40157;42.566;27.526;2023-01-31T07:33:06;49.03;;;18.37;;
19507;SDS011;40157;42.566;27.526;2023-01-31T07:35:07;50.30;;;18.27;;
19507;SDS011;40157;42.566;27.526;2023-01-31T07:37:07;48.83;;;18.63;;
19507;SDS011;40157;42.566;27.526;2023-01-31T07:39:08;49.57;;;16.80;;
19507;SDS011;40157;42.566;27.526;2023-01-31T07:41:09;48.33;;;17.73;;
19507;SDS011;40157;42.566;27.526;2023-01-31T07:43:10;54.33;;;17.63;;
19507;SDS011;40157;42.566;27.526;2023-01-31T07:45:11;66.77;;;19.27;;
19507;SDS011;40157;42.566;27.526;2023-01-31T07:47:13;54.23;;;19.00;;
19507;SDS011;40157;42.566;27.526;2023-01-31T07:49:13;52.53;;;21.27;;
19507;SDS011;40157;42.566;27.526;2023-01-31T07:51:14;63.73;;;24.13;;
19507;SDS011;40157;42.566;27.526;2023-01-31T07:53:14;67.60;;;25.23;;
19507;SDS011;40157;42.566;27.526;2023-01-31T07:55:15;59.30;;;21.43;;
19507;SDS011;40157;42.566;27.526;2023-01-31T07:57:15;58.27;;;19.37;;
19507;SDS011;40157;42.566;27.526;2023-01-31T07:59:16;61.97;;;24.37;;
19507;SDS011;40157;42.566;27.526;2023-01-31T08:01:21;58.70;;;21.70;;
19507;SDS011;40157;42.566;27.526;2023-01-31T08:03:41;55.77;;;20.17;;
19507;SDS011;40157;42.566;27.526;2023-01-31T08:05:44;48.43;;;17.70;;
19507;SDS011;40157;42.566;27.526;2023-01-31T08:07:45;53.33;;;19.33;;
19507;SDS011;40157;42.566;27.526;2023-01-31T08:10:05;51.73;;;18.43;;
19507;SDS011;40157;42.566;27.526;2023-01-31T08:12:06;49.83;;;19.47;;
19507;SDS011;40157;42.566;27.526;2023-01-31T08:14:07;49.87;;;18.53;;
19507;SDS011;40157;42.566;27.526;2023-01-31T08:16:09;50.60;;;20.03;;
19507;SDS011;40157;42.566;27.526;2023-01-31T08:18:09;61.23;;;25.13;;
19507;SDS011;40157;42.566;27.526;2023-01-31T08:20:10;77.83;;;27.70;;
19507;SDS011;40157;42.566;27.526;2023-01-31T08:22:10;85.70;;;30.57;;
19507;SDS011;40157;42.566;27.526;2023-01-31T08:24:11;79.13;;;29.57;;
19507;SDS011;40157;42.566;27.526;2023-01-31T08:26:13;69.43;;;27.70;;
19507;SDS011;40157;42.566;27.526;2023-01-31T08:28:17;71.50;;;27.47;;
19507;SDS011;40157;42.566;27.526;2023-01-31T08:30:18;64.37;;;25.57;;
19507;SDS011;40157;42.566;27.526;2023-01-31T08:32:19;70.07;;;27.57;;
19507;SDS011;40157;42.566;27.526;2023-01-31T08:34:19;69.70;;;26.27;;
19507;SDS011;40157;42.566;27.526;2023-01-31T08:36:23;61.60;;;22.73;;
19507;SDS011;40157;42.566;27.526;2023-01-31T08:38:25;59.07;;;22.07;;
19507;SDS011;40157;42.566;27.526;2023-01-31T08:40:25;78.87;;;27.93;;
19507;SDS011;40157;42.566;27.526;2023-01-31T08:42:25;72.67;;;25.37;;
19507;SDS011;40157;42.566;27.526;2023-01-31T08:44:26;65.90;;;22.20;;
19507;SDS011;40157;42.566;27.526;2023-01-31T08:46:28;58.67;;;20.40;;
19507;SDS011;40157;42.566;27.526;2023-01-31T08:48:31;49.87;;;18.80;;
19507;SDS011;40157;42.566;27.526;2023-01-31T08:50:33;59.17;;;20.13;;
19507;SDS011;40157;42.566;27.526;2023-01-31T08:52:35;57.30;;;21.10;;
19507;SDS011;40157;42.566;27.526;2023-01-31T08:54:35;52.50;;;18.27;;
19507;SDS011;40157;42.566;27.526;2023-01-31T08:56:36;55.37;;;19.30;;
19507;SDS011;40157;42.566;27.526;2023-01-31T08:58:37;47.30;;;19.77;;
19507;SDS011;40157;42.566;27.526;2023-01-31T09:00:39;50.80;;;18.57;;
19507;SDS011;40157;42.566;27.526;2023-01-31T09:02:39;52.77;;;20.43;;
19507;SDS011;40157;42.566;27.526;2023-01-31T09:04:40;55.53;;;19.47;;
19507;SDS011;40157;42.566;27.526;2023-01-31T09:06:40;53.33;;;21.20;;
19507;SDS011;40157;42.566;27.526;2023-01-31T09:08:40;58.70;;;20.57;;
19507;SDS011;40157;42.566;27.526;2023-01-31T09:10:41;61.73;;;21.43;;
19507;SDS011;40157;42.566;27.526;2023-01-31T09:12:41;47.47;;;18.70;;
19507;SDS011;40157;42.566;27.526;2023-01-31T09:14:42;60.03;;;22.57;;
19507;SDS011;40157;42.566;27.526;2023-01-31T09:16:42;48.23;;;19.10;;
19507;SDS011;40157;42.566;27.526;2023-01-31T09:18:45;46.50;;;17.97;;
19507;SDS011;40157;42.566;27.526;2023-01-31T09:20:46;49.43;;;18.37;;
19507;SDS011;40157;42.566;27.526;2023-01-31T09:22:46;49.23;;;19.13;;
19507;SDS011;40157;42.566;27.526;2023-01-31T09:24:47;53.40;;;19.63;;
19507;SDS011;40157;42.566;27.526;2023-01-31T09:26:47;51.53;;;18.93;;
19507;SDS011;40157;42.566;27.526;2023-01-31T09:28:48;56.03;;;20.60;;
19507;SDS011;40157;42.566;27.526;2023-01-31T09:30:50;53.27;;;19.67;;
19507;SDS011;40157;42.566;27.526;2023-01-31T09:32:52;49.20;;;19.10;;
19507;SDS011;40157;42.566;27.526;2023-01-31T09:34:53;55.83;;;19.20;;
19507;SDS011;40157;42.566;27.526;2023-01-31T09:36:53;55.43;;;21.13;;
19507;SDS011;40157;42.566;27.526;2023-01-31T09:38:56;50.17;;;20.57;;
19507;SDS011;40157;42.566;27.526;2023-01-31T09:40:57;54.50;;;21.10;;
19507;SDS011;40157;42.566;27.526;2023-01-31T09:43:01;54.40;;;19.10;;
19507;SDS011;40157;42.566;27.526;2023-01-31T09:45:12;57.23;;;20.37;;
19507;SDS011;40157;42.566;27.526;2023-01-31T09:49:29;48.27;;;19.17;;
19507;SDS011;40157;42.566;27.526;2023-01-31T09:51:34;52.20;;;19.20;;
19507;SDS011;40157;42.566;27.526;2023-01-31T09:53:35;47.97;;;18.17;;
19507;SDS011;40157;42.566;27.526;2023-01-31T09:57:52;55.27;;;20.37;;
19507;SDS011;40157;42.566;27.526;2023-01-31T10:02:16;53.43;;;20.53;;
19507;SDS011;40157;42.566;27.526;2023-01-31T10:09:29;49.70;;;18.27;;
19507;SDS011;40157;42.566;27.526;2023-01-31T10:13:51;55.03;;;18.77;;
19507;SDS011;40157;42.566;27.526;2023-01-31T10:16:01;58.07;;;20.73;;
19507;SDS011;40157;42.566;27.526;2023-01-31T10:20:21;58.43;;;21.40;;
19507;SDS011;40157;42.566;27.526;2023-01-31T10:24:53;46.27;;;17.50;;
19507;SDS011;40157;42.566;27.526;2023-01-31T10:27:18;38.60;;;15.10;;
19507;SDS011;40157;42.566;27.526;2023-01-31T10:29:38;41.43;;;17.17;;
19507;SDS011;40157;42.566;27.526;2023-01-31T10:31:48;50.27;;;19.10;;
19507;SDS011;40157;42.566;27.526;2023-01-31T10:33:55;49.90;;;19.50;;
19507;SDS011;40157;42.566;27.526;2023-01-31T10:36:14;50.80;;;18.07;;
19507;SDS011;40157;42.566;27.526;2023-01-31T10:38:37;41.10;;;15.17;;
19507;SDS011;40157;42.566;27.526;2023-01-31T10:40:53;34.73;;;13.93;;
19507;SDS011;40157;42.566;27.526;2023-01-31T10:43:03;36.10;;;14.53;;
19507;SDS011;40157;42.566;27.526;2023-01-31T10:45:14;34.97;;;13.33;;
19507;SDS011;40157;42.566;27.526;2023-01-31T10:47:20;37.03;;;13.80;;
19507;SDS011;40157;42.566;27.526;2023-01-31T10:49:24;32.23;;;13.33;;
19507;SDS011;40157;42.566;27.526;2023-01-31T10:53:41;33.83;;;13.50;;
19507;SDS011;40157;42.566;27.526;2023-01-31T10:58:19;31.63;;;13.83;;
19507;SDS011;40157;42.566;27.526;2023-01-31T11:00:25;43.33;;;17.87;;
19507;SDS011;40157;42.566;27.526;2023-01-31T11:02:29;37.07;;;14.80;;
19507;SDS011;40157;42.566;27.526;2023-01-31T11:04:31;32.73;;;13.90;;
19507;SDS011;40157;42.566;27.526;2023-01-31T11:06:38;34.70;;;13.07;;
19507;SDS011;40157;42.566;27.526;2023-01-31T11:08:41;33.43;;;14.10;;
19507;SDS011;40157;42.566;27.526;2023-01-31T11:10:50;29.43;;;12.03;;
19507;SDS011;40157;42.566;27.526;2023-01-31T11:13:00;28.80;;;12.00;;
19507;SDS011;40157;42.566;27.526;2023-01-31T11:15:04;29.50;;;11.17;;
19507;SDS011;40157;42.566;27.526;2023-01-31T11:17:07;20.73;;;9.83;;
19507;SDS011;40157;42.566;27.526;2023-01-31T11:19:18;21.03;;;8.77;;
19507;SDS011;40157;42.566;27.526;2023-01-31T11:21:27;19.10;;;7.30;;
19507;SDS011;40157;42.566;27.526;2023-01-31T11:23:31;20.03;;;8.13;;
19507;SDS011;40157;42.566;27.526;2023-01-31T11:25:34;19.57;;;7.83;;
19507;SDS011;40157;42.566;27.526;2023-01-31T11:29:46;17.93;;;7.37;;
19507;SDS011;40157;42.566;27.526;2023-01-31T11:31:49;20.00;;;7.37;;
19507;SDS011;40157;42.566;27.526;2023-01-31T11:33:59;22.13;;;7.93;;
19507;SDS011;40157;42.566;27.526;2023-01-31T11:36:06;18.20;;;8.00;;
19507;SDS011;40157;42.566;27.526;2023-01-31T11:42:15;19.73;;;8.30;;
19507;SDS011;40157;42.566;27.526;2023-01-31T11:44:21;19.67;;;8.60;;
19507;SDS011;40157;42.566;27.526;2023-01-31T11:46:22;18.60;;;7.93;;
19507;SDS011;40157;42.566;27.526;2023-01-31T11:48:24;17.67;;;8.37;;
19507;SDS011;40157;42.566;27.526;2023-01-31T11:50:33;18.00;;;7.33;;
19507;SDS011;40157;42.566;27.526;2023-01-31T11:52:36;18.87;;;8.07;;
19507;SDS011;40157;42.566;27.526;2023-01-31T11:54:38;16.57;;;7.40;;
19507;SDS011;40157;42.566;27.526;2023-01-31T11:56:41;17.53;;;7.13;;
19507;SDS011;40157;42.566;27.526;2023-01-31T11:58:42;16.20;;;6.90;;
19507;SDS011;40157;42.566;27.526;2023-01-31T12:00:54;16.70;;;6.90;;
19507;SDS011;40157;42.566;27.526;2023-01-31T12:03:00;15.37;;;6.60;;
19507;SDS011;40157;42.566;27.526;2023-01-31T12:05:11;12.67;;;6.03;;
19507;SDS011;40157;42.566;27.526;2023-01-31T12:07:21;18.53;;;6.80;;
19507;SDS011;40157;42.566;27.526;2023-01-31T12:09:25;17.00;;;7.23;;
19507;SDS011;40157;42.566;27.526;2023-01-31T12:11:29;16.60;;;7.00;;
19507;SDS011;40157;42.566;27.526;2023-01-31T12:13:31;16.17;;;7.03;;
19507;SDS011;40157;42.566;27.526;2023-01-31T12:15:50;13.47;;;6.40;;
19507;SDS011;40157;42.566;27.526;2023-01-31T12:18:01;11.87;;;5.80;;
19507;SDS011;40157;42.566;27.526;2023-01-31T12:20:19;14.20;;;6.47;;
19507;SDS011;40157;42.566;27.526;2023-01-31T12:30:22;13.73;;;6.20;;
19507;SDS011;40157;42.566;27.526;2023-01-31T12:34:40;15.63;;;7.03;;
19507;SDS011;40157;42.566;27.526;2023-01-31T12:41:40;14.37;;;6.47;;
19507;SDS011;40157;42.566;27.526;2023-01-31T12:46:10;12.60;;;6.33;;
19507;SDS011;40157;42.566;27.526;2023-01-31T12:50:48;16.23;;;5.73;;
19507;SDS011;40157;42.566;27.526;2023-01-31T12:57:27;12.93;;;6.33;;
19507;SDS011;40157;42.566;27.526;2023-01-31T13:07:18;11.23;;;4.80;;
19507;SDS011;40157;42.566;27.526;2023-01-31T13:08:56;7.87;;;4.23;;
19507;SDS011;40157;42.566;27.526;2023-01-31T13:11:07;14.37;;;5.60;;
19507;SDS011;40157;42.566;27.526;2023-01-31T13:13:15;10.47;;;5.17;;
19507;SDS011;40157;42.566;27.526;2023-01-31T13:17:45;9.63;;;4.60;;
19507;SDS011;40157;42.566;27.526;2023-01-31T13:20:39;9.60;;;4.70;;
19507;SDS011;40157;42.566;27.526;2023-01-31T13:22:36;11.23;;;5.27;;
19507;SDS011;40157;42.566;27.526;2023-01-31T13:24:45;10.97;;;4.73;;
19507;SDS011;40157;42.566;27.526;2023-01-31T13:26:54;9.83;;;4.57;;
19507;SDS011;40157;42.566;27.526;2023-01-31T13:31:06;9.93;;;4.70;;
19507;SDS011;40157;42.566;27.526;2023-01-31T13:33:18;10.23;;;4.67;;
19507;SDS011;40157;42.566;27.526;2023-01-31T13:35:34;12.13;;;5.67;;
19507;SDS011;40157;42.566;27.526;2023-01-31T13:37:40;11.00;;;5.10;;
19507;SDS011;40157;42.566;27.526;2023-01-31T13:41:56;13.13;;;5.53;;